createdAt,value
2022-12-04T00:01:45.930Z,1.55
2022-12-04T00:04:16.006Z,1.54
2022-12-04T00:06:45.747Z,1.66
2022-12-04T00:09:15.841Z,1.79
2022-12-04T00:11:45.619Z,1.54
2022-12-04T00:14:17.359Z,1.56
2022-12-04T00:16:47.235Z,1.79
2022-12-04T00:19:18.017Z,1.73
2022-12-04T00:21:49.360Z,1.70
2022-12-04T00:24:19.425Z,1.57
2022-12-04T00:26:49.482Z,1.67
2022-12-04T00:29:19.524Z,1.77
2022-12-04T00:31:49.429Z,1.90
2022-12-04T00:34:19.478Z,1.76
2022-12-04T00:36:49.295Z,1.73
2022-12-04T00:39:19.331Z,1.67
2022-12-04T00:41:49.082Z,1.51
2022-12-04T00:44:19.133Z,1.54
2022-12-04T00:46:49.173Z,1.63
2022-12-04T00:49:18.940Z,1.60
2022-12-04T00:51:48.664Z,1.62
2022-12-04T00:54:18.124Z,1.63
2022-12-04T00:56:47.864Z,1.99
2022-12-04T00:59:17.898Z,1.63
2022-12-04T01:01:47.691Z,1.80
2022-12-04T01:04:18.340Z,1.53
2022-12-04T01:06:48.211Z,1.55
2022-12-04T01:09:18.719Z,1.40
2022-12-04T01:11:48.745Z,1.58
2022-12-04T01:14:20.985Z,1.69
2022-12-04T01:16:51.087Z,1.64
2022-12-04T01:19:20.863Z,1.60
2022-12-04T01:21:50.700Z,1.56
2022-12-04T01:24:20.445Z,1.64
2022-12-04T01:26:50.192Z,1.73
2022-12-04T01:29:20.224Z,1.73
2022-12-04T01:31:50.050Z,1.64
2022-12-04T01:34:19.618Z,1.50
2022-12-04T01:36:49.374Z,1.64
2022-12-04T01:39:19.503Z,1.93
2022-12-04T01:41:49.307Z,1.62
2022-12-04T01:44:25.458Z,1.81
2022-12-04T01:46:57.155Z,1.63
2022-12-04T01:49:35.602Z,1.69
2022-12-04T01:52:16.476Z,1.77
2022-12-04T01:54:49.204Z,1.77
2022-12-04T01:57:21.590Z,1.87
2022-12-04T01:59:54.435Z,1.52
2022-12-04T02:02:30.524Z,1.46
2022-12-04T02:05:02.897Z,1.55
2022-12-04T02:07:33.571Z,1.52
2022-12-04T02:10:08.066Z,1.52
2022-12-04T02:12:46.277Z,1.54
2022-12-04T02:15:25.064Z,1.46
2022-12-04T02:18:00.823Z,1.25
2022-12-04T02:20:33.702Z,1.35
2022-12-04T02:23:39.350Z,1.29
2022-12-04T02:26:43.425Z,1.32
2022-12-04T02:29:22.035Z,1.55
2022-12-04T02:31:55.206Z,1.55
2022-12-04T02:34:43.802Z,1.37
2022-12-04T02:37:19.907Z,1.43
2022-12-04T02:39:53.244Z,1.43
2022-12-04T02:42:28.883Z,1.45
2022-12-04T02:45:04.338Z,1.39
2022-12-04T02:47:36.646Z,1.28
2022-12-04T02:53:00.554Z,1.33
2022-12-04T02:55:40.723Z,1.43
2022-12-04T02:58:14.577Z,1.41
2022-12-04T03:00:46.395Z,1.37
2022-12-04T03:03:19.348Z,1.37
2022-12-04T03:05:57.160Z,1.37
2022-12-04T03:08:32.648Z,1.41
2022-12-04T03:11:03.048Z,1.54
2022-12-04T03:13:38.837Z,1.54
2022-12-04T03:16:14.125Z,1.50
2022-12-04T03:18:59.364Z,1.36
2022-12-04T03:21:32.373Z,1.40
2022-12-04T03:24:08.019Z,1.39
2022-12-04T03:26:40.805Z,1.61
2022-12-04T03:29:22.453Z,1.63
2022-12-04T03:32:03.973Z,1.52
2022-12-04T03:34:39.746Z,1.48
2022-12-04T03:37:12.560Z,1.46
2022-12-04T03:40:00.042Z,1.57
2022-12-04T03:42:32.623Z,1.65
2022-12-04T03:45:31.717Z,1.57
2022-12-04T03:48:04.508Z,1.49
2022-12-04T03:50:37.161Z,1.36
2022-12-04T03:53:12.416Z,1.56
2022-12-04T03:55:59.704Z,1.57
2022-12-04T03:58:32.831Z,1.56
2022-12-04T04:01:05.925Z,1.43
2022-12-04T04:03:38.823Z,1.41
2022-12-04T04:06:11.603Z,1.55
2022-12-04T04:08:44.301Z,1.56
2022-12-04T04:11:19.598Z,1.30
2022-12-04T04:14:18.989Z,1.42
2022-12-04T04:17:09.639Z,1.50
2022-12-04T04:19:59.908Z,1.57
2022-12-04T04:22:49.419Z,1.43
2022-12-04T04:25:21.491Z,1.64
2022-12-04T04:27:55.865Z,1.32
2022-12-04T04:30:27.521Z,1.52
2022-12-04T04:33:03.392Z,1.65
2022-12-04T04:35:38.770Z,1.50
2022-12-04T04:38:21.451Z,1.52
2022-12-04T04:41:15.051Z,1.62
2022-12-04T04:43:59.370Z,1.65
2022-12-04T04:46:34.971Z,1.60
2022-12-04T04:49:07.044Z,1.46
2022-12-04T04:51:37.923Z,1.45
2022-12-04T04:54:12.182Z,1.63
2022-12-04T04:56:44.980Z,1.58
2022-12-04T04:59:14.958Z,1.49
2022-12-04T05:01:47.376Z,1.63
2022-12-04T05:04:17.079Z,1.63
2022-12-04T05:06:48.519Z,1.61
2022-12-04T05:09:19.058Z,1.72
2022-12-04T05:11:48.779Z,1.48
2022-12-04T05:14:18.551Z,1.50
2022-12-04T05:16:48.600Z,1.51
2022-12-04T05:19:35.859Z,1.39
2022-12-04T05:22:05.529Z,1.44
2022-12-04T05:24:35.281Z,1.52
2022-12-04T05:27:05.179Z,1.37
2022-12-04T05:29:36.091Z,1.61
2022-12-04T05:32:07.841Z,1.61
2022-12-04T05:34:37.978Z,1.52
2022-12-04T05:37:08.003Z,1.35
2022-12-04T05:39:37.759Z,1.49
2022-12-04T05:42:07.309Z,1.56
2022-12-04T05:44:37.010Z,1.61
2022-12-04T05:47:08.256Z,1.62
2022-12-04T05:49:38.031Z,1.66
2022-12-04T05:52:08.136Z,1.62
2022-12-04T05:54:37.973Z,1.56
2022-12-04T05:57:08.647Z,1.53
2022-12-04T05:59:38.487Z,1.49
2022-12-04T06:02:08.459Z,1.55
2022-12-04T06:04:38.985Z,1.64
2022-12-04T06:07:10.009Z,1.55
2022-12-04T06:09:40.043Z,1.82
2022-12-04T06:12:10.638Z,1.64
2022-12-04T06:14:40.375Z,1.59
2022-12-04T06:17:10.172Z,1.31
2022-12-04T06:19:40.877Z,1.48
2022-12-04T06:22:10.396Z,1.61
2022-12-04T06:24:40.392Z,1.56
2022-12-04T06:27:27.673Z,1.63
2022-12-04T06:32:21.825Z,1.74
2022-12-04T06:34:54.979Z,1.94
2022-12-04T06:37:25.988Z,1.88
2022-12-04T06:39:56.108Z,1.57
2022-12-04T06:42:25.746Z,1.72
2022-12-04T06:44:55.517Z,1.76
2022-12-04T06:47:25.256Z,1.79
2022-12-04T06:49:55.265Z,1.85
2022-12-04T06:52:25.104Z,1.57
2022-12-04T06:54:55.160Z,1.50
2022-12-04T06:57:25.287Z,1.75
2022-12-04T06:59:55.143Z,1.62
2022-12-04T07:02:25.211Z,1.37
2022-12-04T07:04:57.628Z,1.45
2022-12-04T07:07:27.465Z,1.68
2022-12-04T07:09:57.520Z,1.56
2022-12-04T07:12:27.344Z,1.60
2022-12-04T07:14:57.095Z,1.60
2022-12-04T07:17:27.126Z,1.70
2022-12-04T07:19:57.136Z,1.70
2022-12-04T07:22:28.090Z,1.61
2022-12-04T07:24:57.813Z,1.57
2022-12-04T07:27:27.581Z,1.62
2022-12-04T07:29:57.798Z,1.62
2022-12-04T07:32:27.992Z,1.61
2022-12-04T07:34:58.000Z,1.58
2022-12-04T07:37:27.755Z,1.73
2022-12-04T07:39:57.977Z,1.62
2022-12-04T07:42:29.007Z,1.74
2022-12-04T07:44:59.090Z,1.63
2022-12-04T07:47:28.844Z,1.67
2022-12-04T07:49:58.854Z,1.74
2022-12-04T07:52:28.745Z,1.91
2022-12-04T07:54:59.364Z,1.88
2022-12-04T07:57:29.491Z,1.75
2022-12-04T07:59:59.569Z,1.79
2022-12-04T08:02:29.788Z,1.70
2022-12-04T08:04:59.713Z,1.70
2022-12-04T08:07:29.410Z,1.72
2022-12-04T08:09:59.310Z,1.97
2022-12-04T08:12:29.342Z,2.02
2022-12-04T08:14:59.441Z,1.97
2022-12-04T08:17:29.320Z,2.06
2022-12-04T08:19:59.483Z,1.87
2022-12-04T08:22:29.347Z,1.74
2022-12-04T08:24:59.132Z,1.94
2022-12-04T08:27:28.890Z,1.96
2022-12-04T08:29:58.524Z,1.66
2022-12-04T08:32:28.518Z,1.88
2022-12-04T08:34:58.256Z,2.33
2022-12-04T08:37:28.042Z,2.22
2022-12-04T08:39:58.888Z,2.16
2022-12-04T08:42:29.356Z,2.11
2022-12-04T08:44:59.468Z,2.11
2022-12-04T08:47:29.520Z,2.37
2022-12-04T08:49:59.502Z,2.37
2022-12-04T08:52:29.643Z,2.38
2022-12-04T08:54:59.568Z,2.16
2022-12-04T08:57:29.041Z,2.36
2022-12-04T08:59:58.998Z,2.43
2022-12-04T09:02:28.745Z,2.37
2022-12-04T09:04:59.021Z,2.23
2022-12-04T09:07:28.946Z,2.38
2022-12-04T09:09:59.073Z,2.61
2022-12-04T09:12:28.883Z,2.03
2022-12-04T09:14:58.628Z,2.03
2022-12-04T09:17:28.403Z,2.23
2022-12-04T09:20:01.265Z,2.35
2022-12-04T09:22:45.539Z,2.25
2022-12-04T09:25:01.089Z,2.21
2022-12-04T09:27:30.862Z,1.99
2022-12-04T09:30:00.642Z,1.86
2022-12-04T09:32:30.169Z,1.96
2022-12-04T09:34:59.926Z,1.99
2022-12-04T09:37:29.668Z,1.94
2022-12-04T09:39:59.872Z,1.84
2022-12-04T09:42:38.135Z,1.92
2022-12-04T09:45:13.379Z,1.92
2022-12-04T09:47:46.529Z,1.96
2022-12-04T09:50:23.177Z,1.95
2022-12-04T09:52:58.245Z,2.15
2022-12-04T09:55:39.979Z,1.95
2022-12-04T09:58:12.785Z,2.08
2022-12-04T10:00:45.953Z,2.03
2022-12-04T10:03:21.560Z,2.22
2022-12-04T10:06:14.704Z,2.22
2022-12-04T10:08:47.373Z,2.32
2022-12-04T10:11:47.126Z,2.13
2022-12-04T10:14:40.795Z,2.30
2022-12-04T10:17:47.727Z,1.94
2022-12-04T10:20:26.927Z,2.11
2022-12-04T10:23:18.717Z,2.23
2022-12-04T10:25:50.416Z,1.84
2022-12-04T10:28:23.397Z,1.97
2022-12-04T10:30:55.882Z,2.09
2022-12-04T10:33:31.534Z,2.32
2022-12-04T10:36:03.453Z,2.43
2022-12-04T10:38:50.745Z,2.25
2022-12-04T10:41:37.764Z,2.36
2022-12-04T10:44:12.765Z,2.30
2022-12-04T10:46:46.286Z,2.06
2022-12-04T10:49:20.898Z,2.37
2022-12-04T10:51:50.983Z,2.05
2022-12-04T10:54:23.790Z,2.01
2022-12-04T10:56:58.591Z,2.25
2022-12-04T10:59:29.794Z,2.25
2022-12-04T11:02:08.025Z,2.14
2022-12-04T11:04:37.933Z,2.22
2022-12-04T11:07:10.726Z,2.22
2022-12-04T11:09:42.004Z,2.36
2022-12-04T11:12:22.515Z,2.37
2022-12-04T11:15:11.854Z,2.57
2022-12-04T11:17:41.867Z,2.44
2022-12-04T11:20:22.055Z,2.37
2022-12-04T11:22:58.476Z,2.15
2022-12-04T11:25:33.920Z,2.36
2022-12-04T11:28:04.501Z,2.50
2022-12-04T11:30:37.324Z,2.44
2022-12-04T11:33:10.083Z,2.44
2022-12-04T11:35:40.591Z,2.50
2022-12-04T11:38:19.349Z,2.72
2022-12-04T11:40:52.164Z,2.52
2022-12-04T11:43:24.054Z,2.45
2022-12-04T11:46:02.799Z,2.55
2022-12-04T11:48:35.156Z,2.55
2022-12-04T11:51:40.594Z,2.35
2022-12-04T11:54:28.369Z,2.73
2022-12-04T11:57:01.340Z,2.34
2022-12-04T11:59:36.613Z,2.47
2022-12-04T12:02:21.664Z,2.26
2022-12-04T12:05:04.161Z,2.21
2022-12-04T12:07:51.995Z,2.38
2022-12-04T12:13:22.903Z,2.84
2022-12-04T12:16:10.143Z,2.83
2022-12-04T12:18:42.981Z,2.68
2022-12-04T12:21:18.831Z,2.54
2022-12-04T12:23:57.364Z,2.51
2022-12-04T12:26:32.605Z,2.55
2022-12-04T12:29:05.773Z,2.45
2022-12-04T12:31:56.634Z,2.55
2022-12-04T12:34:34.779Z,2.61
2022-12-04T12:37:13.260Z,2.61
2022-12-04T12:39:46.081Z,2.61
2022-12-04T12:45:09.806Z,2.71
2022-12-04T12:47:45.387Z,3.08
2022-12-04T12:50:34.903Z,3.15
2022-12-04T12:53:10.506Z,3.04
2022-12-04T12:55:43.040Z,3.18
2022-12-04T12:58:32.004Z,2.76
2022-12-04T13:01:20.202Z,2.62
2022-12-04T13:04:17.837Z,2.82
2022-12-04T13:06:50.645Z,2.76
2022-12-04T13:09:32.437Z,2.69
2022-12-04T13:12:05.255Z,2.49
2022-12-04T13:14:35.042Z,2.72
2022-12-04T13:17:07.980Z,2.64
2022-12-04T13:19:42.698Z,2.63
2022-12-04T13:22:18.157Z,2.67
2022-12-04T13:25:13.273Z,2.67
2022-12-04T13:28:00.861Z,2.51
2022-12-04T13:30:33.722Z,2.65
2022-12-04T13:33:23.296Z,2.50
2022-12-04T13:35:58.796Z,2.56
2022-12-04T13:38:31.287Z,2.80
2022-12-04T13:41:04.137Z,2.90
2022-12-04T13:43:46.081Z,2.95
2022-12-04T13:46:34.065Z,3.08
2022-12-04T13:49:18.912Z,3.05
2022-12-04T13:51:50.646Z,3.04
2022-12-04T13:54:31.680Z,2.93
2022-12-04T13:57:19.740Z,2.73
2022-12-04T13:59:50.109Z,2.85
2022-12-04T14:02:32.184Z,2.93
2022-12-04T14:05:05.049Z,2.82
2022-12-04T14:07:39.936Z,2.98
2022-12-04T14:10:21.282Z,2.87
2022-12-04T14:13:02.920Z,2.97
2022-12-04T14:15:35.983Z,2.83
2022-12-04T14:18:15.622Z,2.99
2022-12-04T14:20:46.013Z,2.82
2022-12-04T14:23:25.749Z,2.77
2022-12-04T14:25:59.942Z,2.84
2022-12-04T14:28:41.634Z,2.90
2022-12-04T14:31:29.427Z,2.85
2022-12-04T14:34:16.963Z,2.82
2022-12-04T14:36:49.256Z,2.74
2022-12-04T14:39:44.362Z,2.74
2022-12-04T14:42:40.247Z,2.75
2022-12-04T14:45:38.090Z,2.84
2022-12-04T14:48:18.341Z,2.75
2022-12-04T14:50:56.521Z,2.94
2022-12-04T14:53:44.193Z,2.84
2022-12-04T14:56:28.823Z,2.86
2022-12-04T14:58:59.738Z,2.86
2022-12-04T15:01:32.587Z,2.75
2022-12-04T15:04:08.187Z,2.69
2022-12-04T15:06:40.046Z,2.76
2022-12-04T15:09:36.819Z,2.68
2022-12-04T15:12:35.046Z,2.73
2022-12-04T15:15:21.189Z,2.89
2022-12-04T15:18:05.869Z,2.88
2022-12-04T15:20:39.519Z,2.98
2022-12-04T15:23:12.075Z,2.81
2022-12-04T15:25:47.789Z,2.88
2022-12-04T15:28:38.329Z,3.04
2022-12-04T15:31:11.221Z,2.87
2022-12-04T15:33:42.122Z,2.96
2022-12-04T15:36:14.917Z,2.96
2022-12-04T15:38:45.852Z,2.96
2022-12-04T15:41:30.458Z,2.97
2022-12-04T15:44:00.752Z,3.09
2022-12-04T15:46:37.673Z,3.17
2022-12-04T15:49:18.818Z,3.24
2022-12-04T15:51:49.386Z,3.17
2022-12-04T15:54:24.780Z,3.15
2022-12-04T15:57:09.289Z,2.98
2022-12-04T15:59:39.112Z,2.73
2022-12-04T16:02:23.273Z,2.63
2022-12-04T16:04:53.037Z,2.69
2022-12-04T16:07:28.556Z,2.69
2022-12-04T16:10:03.657Z,2.67
2022-12-04T16:12:33.100Z,2.84
2022-12-04T16:15:03.210Z,2.94
2022-12-04T16:17:36.376Z,2.88
2022-12-04T16:20:08.852Z,2.63
2022-12-04T16:22:41.261Z,2.70
2022-12-04T16:25:14.171Z,2.75
2022-12-04T16:27:43.906Z,2.88
2022-12-04T16:30:15.611Z,2.48
2022-12-04T16:32:45.343Z,2.57
2022-12-04T16:35:17.193Z,2.46
2022-12-04T16:37:47.008Z,2.46
2022-12-04T16:40:17.883Z,2.61
2022-12-04T16:42:47.662Z,2.70
2022-12-04T16:45:29.378Z,2.90
2022-12-04T16:47:59.129Z,2.63
2022-12-04T16:50:29.137Z,2.54
2022-12-04T16:52:59.612Z,2.59
2022-12-04T16:55:38.423Z,2.98
2022-12-04T16:58:09.855Z,3.13
2022-12-04T17:00:42.261Z,2.85
2022-12-04T17:03:26.729Z,2.96
2022-12-04T17:05:57.015Z,2.93
2022-12-04T17:08:27.026Z,2.53
2022-12-04T17:10:57.126Z,2.53
2022-12-04T17:13:26.881Z,2.82
2022-12-04T17:15:58.236Z,2.92
2022-12-04T17:18:28.950Z,2.93
2022-12-04T17:20:59.066Z,2.93
2022-12-04T17:23:28.796Z,2.81
2022-12-04T17:26:04.395Z,2.93
2022-12-04T17:28:36.334Z,2.87
2022-12-04T17:31:08.457Z,2.68
2022-12-04T17:33:38.184Z,2.50
2022-12-04T17:36:14.653Z,2.42
2022-12-04T17:38:44.831Z,2.20
2022-12-04T17:41:15.704Z,2.54
2022-12-04T17:43:45.834Z,2.54
2022-12-04T17:46:20.064Z,2.52
2022-12-04T17:48:50.600Z,2.59
2022-12-04T17:51:26.011Z,2.79
2022-12-04T17:53:56.090Z,2.60
2022-12-04T17:56:26.611Z,2.80
2022-12-04T17:58:56.751Z,2.65
2022-12-04T18:01:28.701Z,2.75
2022-12-04T18:04:03.103Z,2.63
2022-12-04T18:06:35.922Z,2.58
2022-12-04T18:09:07.609Z,2.78
2022-12-04T18:11:39.791Z,2.85
2022-12-04T18:14:14.143Z,2.62
2022-12-04T18:16:47.020Z,3.03
2022-12-04T18:19:17.013Z,2.92
2022-12-04T18:21:46.526Z,2.92
2022-12-04T18:24:17.464Z,3.10
2022-12-04T18:26:49.221Z,2.97
2022-12-04T18:29:25.039Z,3.05
2022-12-04T18:31:54.976Z,2.86
2022-12-04T18:34:24.908Z,2.85
2022-12-04T18:36:55.450Z,2.89
2022-12-04T18:39:26.552Z,3.02
2022-12-04T18:41:56.937Z,2.93
2022-12-04T18:44:27.079Z,2.91
2022-12-04T18:47:00.575Z,3.08
2022-12-04T18:49:30.690Z,2.82
2022-12-04T18:52:00.803Z,2.95
2022-12-04T18:54:30.643Z,2.94
2022-12-04T18:57:00.684Z,2.94
2022-12-04T18:59:30.428Z,2.87
2022-12-04T19:02:00.281Z,2.94
2022-12-04T19:04:33.014Z,2.71
2022-12-04T19:07:04.849Z,2.79
2022-12-04T19:10:10.054Z,3.04
2022-12-04T19:12:09.263Z,2.82
2022-12-04T19:14:39.735Z,2.70
2022-12-04T19:17:10.306Z,3.04
2022-12-04T19:19:40.525Z,3.06
2022-12-04T19:22:11.771Z,2.91
2022-12-04T19:24:41.771Z,2.91
2022-12-04T19:27:12.005Z,2.83
2022-12-04T19:29:43.432Z,2.84
2022-12-04T19:32:13.317Z,2.76
2022-12-04T19:34:43.600Z,3.00
2022-12-04T19:37:14.324Z,2.96
2022-12-04T19:39:44.745Z,2.94
2022-12-04T19:42:14.537Z,2.93
2022-12-04T19:44:49.222Z,3.02
2022-12-04T19:47:15.788Z,2.99
2022-12-04T19:49:46.610Z,3.01
2022-12-04T19:52:16.463Z,2.92
2022-12-04T19:54:46.335Z,3.10
2022-12-04T19:57:16.170Z,3.08
2022-12-04T19:59:46.898Z,3.16
2022-12-04T20:02:16.881Z,3.04
2022-12-04T20:04:46.713Z,3.10
2022-12-04T20:07:17.423Z,2.92
2022-12-04T20:09:52.098Z,3.06
2022-12-04T20:12:19.035Z,3.06
2022-12-04T20:14:48.880Z,2.99
2022-12-04T20:17:18.623Z,3.05
2022-12-04T20:19:48.692Z,2.95
2022-12-04T20:22:18.129Z,3.27
2022-12-04T20:24:47.880Z,3.29
2022-12-04T20:27:17.667Z,3.39
2022-12-04T20:29:47.773Z,3.24
2022-12-04T20:32:17.266Z,3.09
2022-12-04T20:34:47.106Z,2.99
2022-12-04T20:37:17.149Z,3.03
2022-12-04T20:39:47.224Z,3.08
2022-12-04T20:42:16.982Z,3.12
2022-12-04T20:44:46.772Z,3.00
2022-12-04T20:47:16.504Z,2.84
2022-12-04T20:49:46.249Z,3.18
2022-12-04T20:52:15.785Z,3.08
2022-12-04T20:54:45.557Z,3.37
2022-12-04T20:57:15.394Z,3.24
2022-12-04T20:59:45.140Z,3.08
2022-12-04T21:02:15.104Z,3.09
2022-12-04T21:04:44.837Z,3.37
2022-12-04T21:07:14.582Z,3.24
2022-12-04T21:09:44.393Z,2.97
2022-12-04T21:12:31.957Z,3.16
2022-12-04T21:15:18.971Z,3.15
2022-12-04T21:17:48.714Z,2.89
2022-12-04T21:20:18.245Z,3.08
2022-12-04T21:22:48.013Z,3.37
2022-12-04T21:25:17.556Z,3.26
2022-12-04T21:27:47.392Z,3.01
2022-12-04T21:30:17.210Z,3.10
2022-12-04T21:32:46.948Z,3.17
2022-12-04T21:35:16.757Z,3.22
2022-12-04T21:37:46.506Z,3.18
2022-12-04T21:40:16.280Z,3.30
2022-12-04T21:42:46.037Z,3.11
2022-12-04T21:45:15.800Z,3.08
2022-12-04T21:47:45.540Z,3.06
2022-12-04T21:50:15.280Z,3.17
2022-12-04T21:52:45.038Z,3.12
2022-12-04T21:55:14.568Z,3.22
2022-12-04T21:57:44.608Z,3.26
2022-12-04T22:00:14.842Z,3.11
2022-12-04T22:02:44.701Z,3.31
2022-12-04T22:05:14.495Z,3.48
2022-12-04T22:07:44.630Z,3.40
2022-12-04T22:10:14.819Z,3.35
2022-12-04T22:12:50.395Z,3.39
2022-12-04T22:15:16.853Z,3.57
2022-12-04T22:17:46.678Z,3.63
2022-12-04T22:20:16.407Z,3.65
2022-12-04T22:22:46.183Z,3.47
2022-12-04T22:25:16.012Z,3.72
2022-12-04T22:27:45.767Z,3.52
2022-12-04T22:30:16.100Z,3.53
2022-12-04T22:32:45.935Z,3.81
2022-12-04T22:35:16.121Z,3.67
2022-12-04T22:37:46.181Z,3.48
2022-12-04T22:40:17.194Z,3.41
2022-12-04T22:42:47.225Z,3.62
2022-12-04T22:45:17.003Z,3.60
2022-12-04T22:47:46.734Z,3.46
2022-12-04T22:50:16.927Z,3.74
2022-12-04T22:52:46.631Z,3.55
2022-12-04T22:55:16.519Z,3.90
2022-12-04T22:57:46.561Z,3.91
2022-12-04T23:00:16.708Z,3.96
2022-12-04T23:02:46.521Z,3.74
2022-12-04T23:05:16.349Z,3.77
2022-12-04T23:07:46.327Z,3.93
2022-12-04T23:10:16.185Z,3.69
2022-12-04T23:12:45.932Z,3.81
2022-12-04T23:15:15.990Z,3.87
2022-12-04T23:17:45.811Z,3.86
2022-12-04T23:20:16.475Z,3.97
2022-12-04T23:22:47.895Z,3.88
2022-12-04T23:25:17.726Z,4.11
2022-12-04T23:27:47.465Z,4.13
2022-12-04T23:30:21.406Z,4.05
2022-12-04T23:32:48.943Z,3.95
2022-12-04T23:35:18.616Z,3.95
2022-12-04T23:37:48.066Z,4.12
2022-12-04T23:40:17.884Z,4.18
2022-12-04T23:42:47.644Z,4.17
2022-12-04T23:45:17.177Z,3.71
2022-12-04T23:47:47.511Z,3.71
2022-12-04T23:50:17.116Z,3.90
2022-12-04T23:52:46.879Z,3.84
2022-12-04T23:55:16.955Z,3.67
2022-12-04T23:57:46.718Z,3.91
